Time;durP1;ratioP1;P1;durP2;ratioP2;P2;SDS_P1;SDS_P2;PMS_P1;PMS_P2;Temp;Humidity;BMP_temperature;BMP_pressure;BME280_temperature;BME280_humidity;BME280_pressure;Samples;Min_cycle;Max_cycle;Signal;HPM_P1;HPM_P2
2021/10/08 00:01:35;;;;;;;17.98;11.32;;;11.10;98.60;;;;;;5031207;28;20087;-66
2021/10/08 00:04:01;;;;;;;14.90;11.40;;;11.00;98.60;;;;;;5032927;28;20033;-66
2021/10/08 00:06:26;;;;;;;19.95;12.63;;;11.00;98.70;;;;;;5033007;28;20063;-66
2021/10/08 00:08:52;;;;;;;12.93;10.45;;;11.00;98.70;;;;;;5031790;28;20048;-66
2021/10/08 00:11:18;;;;;;;17.52;11.80;;;10.90;98.80;;;;;;5031770;28;20025;-66
2021/10/08 00:13:44;;;;;;;17.75;12.57;;;10.90;98.80;;;;;;5032827;28;20425;-66
2021/10/08 00:16:11;;;;;;;17.27;10.55;;;10.90;98.80;;;;;;5032750;28;20491;-66
2021/10/08 00:18:37;;;;;;;13.27;10.25;;;10.90;98.90;;;;;;5032891;28;20026;-66
2021/10/08 00:21:06;;;;;;;12.27;9.95;;;10.90;98.90;;;;;;5032659;28;20040;-66
2021/10/08 00:23:32;;;;;;;13.98;9.75;;;10.90;98.90;;;;;;5032824;28;20048;-66
2021/10/08 00:25:58;;;;;;;14.23;10.43;;;10.90;98.90;;;;;;5032650;28;20473;-66
2021/10/08 00:28:24;;;;;;;10.98;8.73;;;10.80;98.90;;;;;;5032800;28;20044;-66
2021/10/08 00:30:49;;;;;;;13.48;9.60;;;10.80;98.90;;;;;;5032466;28;20417;-66
2021/10/08 00:33:15;;;;;;;12.82;9.98;;;10.80;98.90;;;;;;5032662;28;20022;-66
2021/10/08 00:35:40;;;;;;;20.83;10.75;;;10.80;98.90;;;;;;5032717;28;20021;-66
2021/10/08 00:38:07;;;;;;;15.38;9.65;;;10.80;98.90;;;;;;5032538;28;20022;-66
2021/10/08 00:40:37;;;;;;;13.55;9.43;;;10.80;98.90;;;;;;5032475;28;20025;-66
2021/10/08 00:43:03;;;;;;;12.25;9.60;;;10.80;98.90;;;;;;5032613;28;20481;-66
2021/10/08 00:45:30;;;;;;;13.30;9.98;;;10.80;98.90;;;;;;5032582;28;20076;-66
2021/10/08 00:47:58;;;;;;;12.27;9.10;;;10.70;98.90;;;;;;5032283;28;20049;-66
2021/10/08 00:50:24;;;;;;;15.00;9.32;;;10.70;99.00;;;;;;5032382;28;20030;-66
2021/10/08 00:52:49;;;;;;;12.35;10.27;;;10.70;99.00;;;;;;5032257;28;20025;-66
2021/10/08 00:55:15;;;;;;;14.55;11.20;;;10.70;99.00;;;;;;5032502;28;20030;-66
2021/10/08 00:57:43;;;;;;;14.48;10.43;;;10.70;99.10;;;;;;5032538;28;20079;-66
2021/10/08 01:00:09;;;;;;;16.90;10.82;;;10.70;99.10;;;;;;5032408;28;20033;-66
2021/10/08 01:02:35;;;;;;;16.77;9.88;;;10.60;99.10;;;;;;5032190;28;20022;-66
2021/10/08 01:05:01;;;;;;;12.35;9.57;;;10.60;99.10;;;;;;5032422;28;20018;-66
2021/10/08 01:07:26;;;;;;;13.07;9.13;;;10.60;99.20;;;;;;5032306;28;20036;-66
2021/10/08 01:09:52;;;;;;;13.35;9.48;;;10.60;99.30;;;;;;5032403;28;20022;-66
2021/10/08 01:12:18;;;;;;;15.13;8.82;;;10.60;99.20;;;;;;5030845;28;20029;-66
2021/10/08 01:14:43;;;;;;;11.68;9.68;;;10.60;99.20;;;;;;5032233;28;20040;-66
2021/10/08 01:17:16;;;;;;;11.30;9.15;;;10.60;99.20;;;;;;5032281;28;20108;-66
2021/10/08 01:19:43;;;;;;;15.38;9.15;;;10.60;99.20;;;;;;5032246;28;20021;-66
2021/10/08 01:22:09;;;;;;;10.77;8.77;;;10.60;99.30;;;;;;5032630;28;20036;-66
2021/10/08 01:24:34;;;;;;;15.75;9.65;;;10.60;99.30;;;;;;5035759;28;20509;-66
2021/10/08 01:27:08;;;;;;;14.52;9.70;;;10.50;99.30;;;;;;5034618;28;20371;-66
2021/10/08 01:29:45;;;;;;;14.10;9.40;;;10.50;99.30;;;;;;5035831;28;20029;-66
2021/10/08 01:32:11;;;;;;;17.10;10.13;;;10.50;99.30;;;;;;5034343;28;20087;-66
2021/10/08 01:34:37;;;;;;;15.65;9.63;;;10.40;99.30;;;;;;5035523;28;20022;-66
2021/10/08 01:37:02;;;;;;;12.65;9.35;;;10.50;99.40;;;;;;5034401;28;20389;-66
2021/10/08 01:39:28;;;;;;;19.80;11.00;;;10.50;99.40;;;;;;5034390;28;20055;-66
2021/10/08 01:41:53;;;;;;;14.88;11.70;;;10.40;99.30;;;;;;5035553;28;20045;-65
2021/10/08 01:44:19;;;;;;;17.60;12.00;;;10.40;99.40;;;;;;5034340;28;20431;-66
2021/10/08 01:46:45;;;;;;;14.02;10.55;;;10.40;99.40;;;;;;5034198;28;20029;-66
2021/10/08 01:49:10;;;;;;;15.05;10.55;;;10.40;99.40;;;;;;5035104;28;20124;-66
2021/10/08 01:51:36;;;;;;;15.13;11.05;;;10.30;99.50;;;;;;5035245;28;20490;-66
2021/10/08 01:54:01;;;;;;;13.57;10.18;;;10.30;99.60;;;;;;5035270;28;20037;-66
2021/10/08 01:56:28;;;;;;;12.05;8.93;;;10.30;99.60;;;;;;5035366;28;20097;-66
2021/10/08 01:58:53;;;;;;;14.90;8.25;;;10.30;99.60;;;;;;5027991;28;20067;-66
2021/10/08 02:01:19;;;;;;;11.60;8.05;;;10.20;99.70;;;;;;5019554;28;20030;-66
2021/10/08 02:03:46;;;;;;;16.10;8.00;;;10.20;99.70;;;;;;5028247;28;20034;-66
2021/10/08 02:06:12;;;;;;;12.32;8.50;;;10.20;99.70;;;;;;5017697;28;20051;-66
2021/10/08 02:08:38;;;;;;;12.63;8.45;;;10.20;99.70;;;;;;5034539;28;20537;-66
2021/10/08 02:11:03;;;;;;;10.90;7.75;;;10.20;99.70;;;;;;5029797;28;20079;-65
2021/10/08 02:13:29;;;;;;;11.85;8.02;;;10.20;99.70;;;;;;5020125;28;20025;-66
2021/10/08 02:15:54;;;;;;;13.10;9.50;;;10.20;99.70;;;;;;5033794;28;20030;-65
2021/10/08 02:18:20;;;;;;;15.10;9.43;;;10.20;99.60;;;;;;5015950;28;20030;-66
2021/10/08 02:20:45;;;;;;;15.68;9.35;;;10.10;99.60;;;;;;5025093;28;20136;-66
2021/10/08 02:23:11;;;;;;;11.98;8.80;;;10.10;99.70;;;;;;5033282;28;20500;-66
2021/10/08 02:25:36;;;;;;;15.85;9.55;;;10.10;99.80;;;;;;5014691;28;20026;-65
2021/10/08 02:28:02;;;;;;;10.73;7.88;;;10.10;99.70;;;;;;5027206;28;20025;-65
2021/10/08 02:30:29;;;;;;;10.32;8.02;;;10.10;99.80;;;;;;5015627;28;20053;-65
2021/10/08 02:32:54;;;;;;;13.68;8.02;;;10.10;99.80;;;;;;5026321;28;20040;-66
2021/10/08 02:35:20;;;;;;;15.75;9.88;;;10.10;99.80;;;;;;5032723;28;20017;-66
2021/10/08 02:37:45;;;;;;;15.02;10.48;;;10.00;99.70;;;;;;5026217;28;20022;-66
2021/10/08 02:40:11;;;;;;;15.27;9.93;;;10.10;99.80;;;;;;5028114;28;20113;-65
2021/10/08 02:42:37;;;;;;;13.02;8.63;;;10.00;99.70;;;;;;5014318;28;20033;-65
2021/10/08 02:45:03;;;;;;;14.32;8.85;;;10.00;99.70;;;;;;5026327;28;20404;-66
2021/10/08 02:47:29;;;;;;;14.95;9.13;;;10.00;99.80;;;;;;5015552;28;20490;-65
2021/10/08 02:49:54;;;;;;;13.30;9.43;;;10.00;99.80;;;;;;5024185;28;20037;-66
2021/10/08 02:52:20;;;;;;;14.98;10.27;;;10.00;99.80;;;;;;5016513;28;20041;-65
2021/10/08 02:54:45;;;;;;;13.27;10.13;;;9.90;99.80;;;;;;5014364;28;20030;-66
2021/10/08 02:57:11;;;;;;;14.13;9.43;;;9.80;99.80;;;;;;5027781;28;20485;-65
2021/10/08 02:59:36;;;;;;;17.88;9.63;;;9.80;99.90;;;;;;5014200;28;20105;-66
2021/10/08 03:02:03;;;;;;;13.80;9.07;;;9.80;99.90;;;;;;5012643;28;20113;-66
2021/10/08 03:04:28;;;;;;;15.82;8.88;;;9.80;99.90;;;;;;5012388;28;20026;-65
2021/10/08 03:06:56;;;;;;;12.98;9.35;;;9.80;99.90;;;;;;5023594;28;20056;-65
2021/10/08 03:09:22;;;;;;;16.73;8.52;;;9.70;99.90;;;;;;5029365;28;20018;-65
2021/10/08 03:11:47;;;;;;;12.75;8.55;;;9.70;99.90;;;;;;5027780;28;20025;-66
2021/10/08 03:14:13;;;;;;;12.18;8.93;;;9.80;99.90;;;;;;5018415;28;20429;-66
2021/10/08 03:16:38;;;;;;;14.52;7.72;;;9.80;99.90;;;;;;5013854;28;20105;-65
2021/10/08 03:19:04;;;;;;;9.70;6.90;;;9.80;99.90;;;;;;5026300;28;20078;-66
2021/10/08 03:21:30;;;;;;;11.98;8.50;;;9.70;99.90;;;;;;5014551;28;20394;-65
2021/10/08 03:23:55;;;;;;;14.18;9.57;;;9.80;99.90;;;;;;5024329;28;20040;-65
2021/10/08 03:26:21;;;;;;;13.60;9.73;;;9.80;99.90;;;;;;5016415;28;20080;-66
2021/10/08 03:28:46;;;;;;;16.05;8.68;;;9.70;99.90;;;;;;5013758;28;20025;-65
2021/10/08 03:31:13;;;;;;;13.77;8.48;;;9.70;99.90;;;;;;5027490;28;20458;-65
2021/10/08 03:33:38;;;;;;;13.05;8.40;;;9.70;99.90;;;;;;5026580;28;20030;-65
2021/10/08 03:36:05;;;;;;;11.57;9.07;;;9.60;99.90;;;;;;5013360;28;20498;-65
2021/10/08 03:38:32;;;;;;;11.32;7.82;;;9.60;99.90;;;;;;5027070;28;20022;-65
2021/10/08 03:41:10;;;;;;;15.52;8.48;;;9.60;99.90;;;;;;5013416;28;20429;-65
2021/10/08 03:43:37;;;;;;;11.82;8.50;;;9.60;99.90;;;;;;5029985;28;20469;-66
2021/10/08 03:46:07;;;;;;;12.73;8.77;;;9.60;99.90;;;;;;5023732;28;20032;-65
2021/10/08 03:51:03;;;;;;;11.95;7.20;;;9.50;99.90;;;;;;5013159;28;20034;-65
2021/10/08 03:53:28;;;;;;;;;;;9.50;99.90;;;;;;5023141;28;20022;-65
2021/10/08 03:55:54;;;;;;;10.05;6.68;;;9.40;99.90;;;;;;5026642;28;20419;-65
2021/10/08 03:58:19;;;;;;;14.82;7.90;;;9.40;99.90;;;;;;5024776;28;20029;-66
2021/10/08 04:00:45;;;;;;;12.70;8.45;;;9.40;99.90;;;;;;5027578;28;20044;-65
2021/10/08 04:03:10;;;;;;;11.80;7.38;;;9.40;99.90;;;;;;5012897;28;20045;-65
2021/10/08 04:05:36;;;;;;;9.90;7.78;;;9.40;99.90;;;;;;5026502;28;20036;-65
2021/10/08 04:08:01;;;;;;;17.95;7.97;;;9.40;99.90;;;;;;5026816;28;20377;-65
2021/10/08 04:10:27;;;;;;;11.90;8.35;;;9.30;99.90;;;;;;5015982;28;20500;-65
2021/10/08 04:12:53;;;;;;;12.85;8.50;;;9.30;99.90;;;;;;5028003;28;20470;-65
2021/10/08 04:15:18;;;;;;;9.00;6.88;;;9.20;99.90;;;;;;5011539;28;20029;-65
2021/10/08 04:17:43;;;;;;;10.65;7.95;;;9.20;99.90;;;;;;5014454;28;20022;-65
2021/10/08 04:20:09;;;;;;;15.15;8.18;;;9.20;99.90;;;;;;5024909;28;20101;-66
2021/10/08 04:22:35;;;;;;;11.35;7.97;;;9.20;99.90;;;;;;5011454;28;20036;-66
2021/10/08 04:25:00;;;;;;;9.82;7.90;;;9.20;99.90;;;;;;5025086;28;20022;-65
2021/10/08 04:27:26;;;;;;;16.30;8.55;;;9.20;99.90;;;;;;5012693;28;20045;-65
2021/10/08 04:29:51;;;;;;;13.18;7.43;;;9.20;99.90;;;;;;5026450;28;20018;-65
2021/10/08 04:32:17;;;;;;;13.40;7.95;;;9.20;99.90;;;;;;5012644;28;20034;-65
2021/10/08 04:34:43;;;;;;;11.35;7.53;;;9.20;99.90;;;;;;5014150;28;20022;-65
2021/10/08 04:37:08;;;;;;;11.60;7.80;;;9.20;99.90;;;;;;5032056;28;20018;-65
2021/10/08 04:39:34;;;;;;;9.60;7.68;;;9.20;99.90;;;;;;5032314;28;20026;-65
2021/10/08 04:41:59;;;;;;;19.00;8.13;;;9.20;99.90;;;;;;5012715;28;20022;-65
2021/10/08 04:44:25;;;;;;;12.30;8.38;;;9.20;99.90;;;;;;5012648;28;20100;-65
2021/10/08 04:46:50;;;;;;;11.25;7.78;;;9.20;99.90;;;;;;5026144;28;20022;-66
2021/10/08 04:49:16;;;;;;;12.77;7.35;;;9.20;99.90;;;;;;5012565;28;20038;-65
2021/10/08 04:51:43;;;;;;;11.48;7.57;;;9.20;99.90;;;;;;5013568;28;20032;-65
2021/10/08 04:54:08;;;;;;;12.30;6.90;;;9.10;99.90;;;;;;5031790;28;20071;-65
2021/10/08 04:56:35;;;;;;;13.27;7.68;;;9.10;99.90;;;;;;5020425;28;20026;-65
2021/10/08 04:59:01;;;;;;;14.05;6.95;;;9.10;99.90;;;;;;5018330;28;20105;-65
2021/10/08 05:01:28;;;;;;;9.65;6.43;;;9.10;99.90;;;;;;5034848;28;20140;-65
2021/10/08 05:03:54;;;;;;;10.15;7.72;;;9.10;99.90;;;;;;5021456;28;20041;-65
2021/10/08 05:06:19;;;;;;;10.43;8.02;;;9.10;99.90;;;;;;5021107;28;20029;-66
2021/10/08 05:08:45;;;;;;;13.15;8.38;;;9.10;99.90;;;;;;5024244;28;20088;-65
2021/10/08 05:11:10;;;;;;;8.85;7.28;;;9.00;99.90;;;;;;5024689;28;20044;-65
2021/10/08 05:13:36;;;;;;;10.65;6.97;;;9.00;99.90;;;;;;5026068;28;20033;-65
2021/10/08 05:16:02;;;;;;;11.30;7.95;;;9.10;99.90;;;;;;5015936;28;20045;-65
2021/10/08 05:18:27;;;;;;;12.68;7.85;;;9.00;99.90;;;;;;5023735;28;20079;-65
2021/10/08 05:20:53;;;;;;;11.90;7.72;;;9.00;99.90;;;;;;5022095;28;20100;-65
2021/10/08 05:23:18;;;;;;;13.63;7.97;;;9.00;99.90;;;;;;5020987;28;20033;-65
2021/10/08 05:25:44;;;;;;;13.98;10.20;;;8.90;99.90;;;;;;5024227;28;20069;-65
2021/10/08 05:28:09;;;;;;;15.18;7.90;;;8.90;99.90;;;;;;5031260;28;20057;-65
2021/10/08 05:30:35;;;;;;;9.20;7.80;;;8.90;99.90;;;;;;5035836;28;20025;-65
2021/10/08 05:33:01;;;;;;;11.98;8.60;;;8.90;99.90;;;;;;5034588;28;20079;-65
2021/10/08 05:35:27;;;;;;;10.57;7.68;;;8.90;99.90;;;;;;5016480;28;20490;-65
2021/10/08 05:37:53;;;;;;;14.05;8.25;;;8.90;99.90;;;;;;5021879;28;20022;-65
2021/10/08 05:40:18;;;;;;;13.52;7.22;;;8.90;99.90;;;;;;5029057;28;20026;-65
2021/10/08 05:42:44;;;;;;;11.77;8.23;;;8.80;99.90;;;;;;5013562;28;20283;-65
2021/10/08 05:45:10;;;;;;;17.58;8.90;;;8.80;99.90;;;;;;5013726;28;20022;-65
2021/10/08 05:47:35;;;;;;;14.40;8.80;;;8.80;99.90;;;;;;5016352;28;20045;-65
2021/10/08 05:50:01;;;;;;;15.75;8.55;;;8.80;99.90;;;;;;5013700;28;20497;-65
2021/10/08 05:52:26;;;;;;;9.10;7.65;;;8.70;99.90;;;;;;5014790;28;20037;-65
2021/10/08 05:54:52;;;;;;;8.80;7.28;;;8.70;99.90;;;;;;5020899;28;20101;-65
2021/10/08 05:57:18;;;;;;;8.23;6.53;;;8.70;99.90;;;;;;5013339;28;20033;-65
2021/10/08 05:59:44;;;;;;;17.13;9.23;;;8.70;99.90;;;;;;5019235;28;20093;-65
2021/10/08 06:02:11;;;;;;;12.35;9.23;;;8.70;99.90;;;;;;5025879;28;20393;-65
2021/10/08 06:04:37;;;;;;;13.35;8.75;;;8.70;99.90;;;;;;5036728;28;20108;-65
2021/10/08 06:07:02;;;;;;;11.73;8.48;;;8.60;99.90;;;;;;5016141;28;20104;-65
2021/10/08 06:09:28;;;;;;;10.77;7.63;;;8.60;99.90;;;;;;5012378;28;20104;-65
2021/10/08 06:11:53;;;;;;;10.80;7.60;;;8.60;99.90;;;;;;5015161;28;20030;-65
2021/10/08 06:14:19;;;;;;;8.82;7.05;;;8.60;99.90;;;;;;5020032;28;20020;-65
2021/10/08 06:16:44;;;;;;;13.18;7.47;;;8.70;99.90;;;;;;5015865;28;20022;-65
2021/10/08 06:19:10;;;;;;;9.18;6.50;;;8.70;99.90;;;;;;5028035;28;20129;-65
2021/10/08 06:21:35;;;;;;;11.40;7.30;;;8.70;99.90;;;;;;5012813;28;20057;-65
2021/10/08 06:24:01;;;;;;;8.30;6.53;;;8.70;99.90;;;;;;5015073;28;20442;-65
2021/10/08 06:26:26;;;;;;;11.55;7.47;;;8.70;99.90;;;;;;5013031;28;20030;-65
2021/10/08 06:28:52;;;;;;;9.80;6.47;;;8.70;99.90;;;;;;5027930;28;20030;-65
2021/10/08 06:31:18;;;;;;;11.95;7.80;;;8.70;99.90;;;;;;5015507;28;20052;-65
2021/10/08 06:33:43;;;;;;;9.88;7.75;;;8.70;99.90;;;;;;5012790;28;20021;-65
2021/10/08 06:36:09;;;;;;;10.73;7.57;;;8.70;99.90;;;;;;5018362;28;20022;-65
2021/10/08 06:38:34;;;;;;;7.90;5.65;;;8.70;99.90;;;;;;5012455;28;20025;-65
2021/10/08 06:41:00;;;;;;;6.93;6.18;;;8.70;99.90;;;;;;5011805;28;20030;-65
2021/10/08 06:43:25;;;;;;;11.55;7.35;;;8.70;99.90;;;;;;5030017;28;20026;-65
2021/10/08 06:45:51;;;;;;;8.77;6.90;;;8.70;99.90;;;;;;5024454;28;20024;-65
2021/10/08 06:48:16;;;;;;;10.48;7.35;;;8.70;99.90;;;;;;5026495;28;20160;-65
2021/10/08 06:50:42;;;;;;;7.95;7.13;;;8.70;99.90;;;;;;5027091;28;20025;-65
2021/10/08 06:53:09;;;;;;;8.32;6.25;;;8.80;99.90;;;;;;5023283;28;20029;-65
2021/10/08 06:55:35;;;;;;;7.57;6.28;;;8.80;99.90;;;;;;5029524;28;20018;-65
2021/10/08 06:58:01;;;;;;;8.45;6.80;;;8.80;99.90;;;;;;5025820;28;20040;-65
2021/10/08 07:00:27;;;;;;;9.80;7.28;;;8.90;99.90;;;;;;5013030;28;20473;-65
2021/10/08 07:02:54;;;;;;;9.70;6.22;;;8.90;99.90;;;;;;5007901;28;20025;-65
2021/10/08 07:05:21;;;;;;;10.45;6.47;;;8.90;99.90;;;;;;5009392;28;20021;-65
2021/10/08 07:07:47;;;;;;;8.57;6.60;;;8.90;99.90;;;;;;5025726;28;20016;-65
2021/10/08 07:10:13;;;;;;;9.70;7.47;;;8.90;99.90;;;;;;5027079;28;20021;-65
2021/10/08 07:12:39;;;;;;;12.40;6.65;;;8.90;99.90;;;;;;5031263;28;20029;-64
2021/10/08 07:15:11;;;;;;;13.52;6.88;;;9.00;99.90;;;;;;5031338;28;20430;-65
2021/10/08 07:17:40;;;;;;;10.27;6.63;;;9.00;99.90;;;;;;5026256;28;20022;-65
2021/10/08 07:20:07;;;;;;;15.82;6.55;;;9.00;99.90;;;;;;5031082;28;20036;-65
2021/10/08 07:22:32;;;;;;;9.85;7.05;;;9.00;99.90;;;;;;5029812;28;20022;-65
2021/10/08 07:24:58;;;;;;;7.63;6.15;;;9.10;99.90;;;;;;5031117;28;20120;-65
2021/10/08 07:27:23;;;;;;;11.65;8.00;;;9.10;99.90;;;;;;5025969;28;20482;-65
2021/10/08 07:29:49;;;;;;;9.95;6.70;;;9.10;99.90;;;;;;5026096;28;20083;-65
2021/10/08 07:32:15;;;;;;;13.20;7.60;;;9.20;99.90;;;;;;5024605;28;20029;-64
2021/10/08 07:34:42;;;;;;;11.27;8.60;;;9.20;99.90;;;;;;5021426;28;20021;-65
2021/10/08 07:37:07;;;;;;;11.30;7.45;;;9.30;99.90;;;;;;5028694;28;20025;-65
2021/10/08 07:39:33;;;;;;;11.23;7.63;;;9.40;99.90;;;;;;5029933;28;20021;-65
2021/10/08 07:41:58;;;;;;;13.98;8.50;;;9.50;99.90;;;;;;5028219;28;20032;-65
2021/10/08 07:44:24;;;;;;;11.52;7.65;;;9.50;99.90;;;;;;5028365;28;20033;-65
2021/10/08 07:46:51;;;;;;;10.48;8.07;;;9.50;99.90;;;;;;5029164;28;20033;-65
2021/10/08 07:49:26;;;;;;;11.93;8.57;;;9.60;99.90;;;;;;5027236;28;20060;-65
2021/10/08 07:51:51;;;;;;;12.77;8.38;;;9.70;99.90;;;;;;5026427;28;20025;-65
2021/10/08 07:54:17;;;;;;;11.65;7.38;;;9.70;99.90;;;;;;5025785;28;20033;-64
2021/10/08 07:56:42;;;;;;;11.20;8.07;;;9.70;99.90;;;;;;5027807;28;20029;-65
2021/10/08 07:59:08;;;;;;;13.13;8.48;;;9.80;99.90;;;;;;5013327;28;20121;-65
2021/10/08 08:01:33;;;;;;;12.70;9.02;;;9.90;99.90;;;;;;5030738;28;20032;-64
2021/10/08 08:03:58;;;;;;;10.05;8.05;;;10.00;99.90;;;;;;5024979;28;20099;-65
2021/10/08 08:06:24;;;;;;;10.77;8.15;;;10.00;99.90;;;;;;5027137;28;20025;-65
2021/10/08 08:08:49;;;;;;;13.07;8.40;;;10.10;99.90;;;;;;5028918;28;20393;-64
2021/10/08 08:11:15;;;;;;;14.23;9.80;;;10.20;99.90;;;;;;5031025;28;20481;-65
2021/10/08 08:13:41;;;;;;;14.52;8.95;;;10.20;99.90;;;;;;5016385;28;20029;-65
2021/10/08 08:16:06;;;;;;;11.93;8.77;;;10.20;99.90;;;;;;5012870;28;20084;-65
2021/10/08 08:18:32;;;;;;;12.15;8.85;;;10.30;99.90;;;;;;5012827;28;20478;-65
2021/10/08 08:20:57;;;;;;;13.75;9.18;;;10.30;99.90;;;;;;5018053;28;20032;-64
2021/10/08 08:23:23;;;;;;;12.73;9.65;;;10.50;99.90;;;;;;5021062;28;20045;-65
2021/10/08 08:25:49;;;;;;;15.90;8.23;;;10.60;99.90;;;;;;5015920;28;20037;-65
2021/10/08 08:28:15;;;;;;;11.32;9.18;;;10.70;99.90;;;;;;5022931;28;20084;-64
2021/10/08 08:30:42;;;;;;;14.68;8.30;;;10.80;99.90;;;;;;5029402;28;20026;-64
2021/10/08 08:33:08;;;;;;;12.00;8.15;;;10.90;99.90;;;;;;5025481;28;20052;-64
2021/10/08 08:35:34;;;;;;;10.98;8.18;;;11.00;99.90;;;;;;5016575;28;20172;-64
2021/10/08 08:37:59;;;;;;;10.70;7.40;;;11.00;99.90;;;;;;5030592;28;20473;-64
2021/10/08 08:40:28;;;;;;;11.15;8.57;;;11.10;99.90;;;;;;5016678;28;20065;-64
2021/10/08 08:42:54;;;;;;;10.07;7.60;;;11.20;99.90;;;;;;5029962;28;20022;-64
2021/10/08 08:45:19;;;;;;;10.25;7.45;;;11.30;99.90;;;;;;5025306;28;20022;-64
2021/10/08 08:48:06;;;;;;;9.35;8.35;;;11.40;99.90;;;;;;5018064;28;20056;-63
2021/10/08 08:50:34;;;;;;;10.45;8.15;;;11.60;99.90;;;;;;5014969;28;20385;-63
2021/10/08 08:53:00;;;;;;;10.95;8.32;;;11.60;99.90;;;;;;5022241;28;20014;-63
2021/10/08 08:55:26;;;;;;;10.10;7.47;;;11.70;99.90;;;;;;5031843;28;20022;-64
2021/10/08 08:57:51;;;;;;;10.02;7.90;;;11.80;99.90;;;;;;5016219;28;20022;-64
2021/10/08 09:00:21;;;;;;;11.32;7.93;;;11.90;99.90;;;;;;5029870;28;20025;-64
2021/10/08 09:02:57;;;;;;;;;;;12.10;99.80;;;;;;5016590;28;20025;-63
2021/10/08 09:05:26;;;;;;;9.52;7.90;;;12.20;99.70;;;;;;5032160;28;19975;-64
2021/10/08 09:07:56;;;;;;;13.23;9.68;;;12.30;99.60;;;;;;5030475;28;20044;-64
2021/10/08 09:10:29;;;;;;;12.55;9.18;;;12.50;99.50;;;;;;5033813;28;20022;-64
2021/10/08 09:13:11;;;;;;;13.63;9.05;;;12.60;99.50;;;;;;5034731;28;20026;-64
2021/10/08 09:15:51;;;;;;;11.43;8.65;;;12.70;99.50;;;;;;5015809;28;20390;-64
2021/10/08 09:18:22;;;;;;;14.10;11.77;;;12.90;99.30;;;;;;5028393;28;20556;-64
2021/10/08 09:21:13;;;;;;;16.42;11.70;;;12.90;99.30;;;;;;5016283;28;20560;-64
2021/10/08 09:23:41;;;;;;;17.15;11.95;;;12.90;99.20;;;;;;5016311;28;20030;-64
2021/10/08 09:26:30;;;;;;;15.60;12.13;;;12.90;99.30;;;;;;5028623;28;20108;-64
2021/10/08 09:28:57;;;;;;;18.10;12.77;;;12.90;99.30;;;;;;5015219;28;20455;-64
2021/10/08 09:31:43;;;;;;;20.20;12.88;;;12.90;99.50;;;;;;5015743;28;20030;-64
2021/10/08 09:34:18;;;;;;;17.92;13.15;;;13.20;99.40;;;;;;5016975;28;20029;-64
2021/10/08 09:36:48;;;;;;;17.33;13.32;;;13.50;99.40;;;;;;5034422;28;20013;-64
2021/10/08 09:39:28;;;;;;;20.77;14.45;;;13.80;99.10;;;;;;5031382;28;20021;-64
2021/10/08 09:41:57;;;;;;;23.63;16.48;;;14.10;98.80;;;;;;5033015;28;20018;-64
2021/10/08 09:44:23;;;;;;;21.00;15.07;;;14.30;98.80;;;;;;5033681;28;20025;-64
2021/10/08 09:46:49;;;;;;;21.70;15.80;;;14.40;98.40;;;;;;5016078;28;20034;-64
2021/10/08 09:49:22;;;;;;;21.63;13.95;;;14.40;98.40;;;;;;5023688;28;20056;-65
2021/10/08 09:51:47;;;;;;;21.85;14.70;;;14.60;98.40;;;;;;5042465;28;20022;-64
2021/10/08 09:54:13;;;;;;;19.17;13.50;;;14.70;98.40;;;;;;5028956;28;20036;-64
2021/10/08 09:56:41;;;;;;;22.30;15.60;;;14.90;98.50;;;;;;5032138;28;20025;-64
2021/10/08 09:59:10;;;;;;;21.15;13.82;;;15.00;98.40;;;;;;5032179;28;20049;-65
2021/10/08 10:01:39;;;;;;;20.53;13.83;;;15.20;98.40;;;;;;5026652;28;20040;-64
2021/10/08 10:04:08;;;;;;;19.55;14.60;;;15.40;98.40;;;;;;5026514;28;20122;-64
2021/10/08 10:06:34;;;;;;;30.17;19.08;;;15.70;98.40;;;;;;5034618;28;20030;-65
2021/10/08 10:09:02;;;;;;;22.65;16.15;;;15.90;98.20;;;;;;5034537;28;20108;-64
2021/10/08 10:11:28;;;;;;;21.55;15.68;;;16.30;98.20;;;;;;5023393;28;20036;-64
2021/10/08 10:13:57;;;;;;;19.70;14.30;;;16.60;98.10;;;;;;5029517;28;20022;-64
2021/10/08 10:16:24;;;;;;;19.05;14.52;;;17.10;98.80;;;;;;5030106;28;20432;-64
2021/10/08 10:18:54;;;;;;;19.65;14.80;;;17.80;99.90;;;;;;5032233;28;20567;-64
2021/10/08 10:21:21;;;;;;;16.42;12.98;;;20.30;98.60;;;;;;5027425;28;20026;-65
2021/10/08 10:23:54;;;;;;;15.77;12.55;;;23.50;94.60;;;;;;5027181;28;20021;-65
2021/10/08 10:26:24;;;;;;;13.98;11.07;;;26.60;90.30;;;;;;5032655;28;20029;-65
2021/10/08 10:28:51;;;;;;;11.30;9.93;;;29.50;81.60;;;;;;5032169;28;20109;-66
2021/10/08 10:31:17;;;;;;;12.20;10.93;;;31.70;73.30;;;;;;5029585;28;20487;-65
2021/10/08 10:33:43;;;;;;;13.98;11.23;;;33.80;65.40;;;;;;5033973;28;20032;-65
2021/10/08 10:36:29;;;;;;;10.32;9.23;;;35.60;58.40;;;;;;5033879;28;20108;-65
2021/10/08 10:39:19;;;;;;;10.93;8.65;;;37.50;55.00;;;;;;5018655;28;20021;-65
2021/10/08 10:41:59;;;;;;;9.32;8.43;;;39.00;52.40;;;;;;5029579;28;20029;-65
2021/10/08 10:44:38;;;;;;;9.45;8.55;;;40.30;50.40;;;;;;5019135;28;20026;-66
2021/10/08 10:47:33;;;;;;;9.48;8.25;;;41.20;48.50;;;;;;5014881;28;20028;-66
2021/10/08 10:50:16;;;;;;;8.68;7.88;;;42.30;47.00;;;;;;5030911;28;20596;-66
2021/10/08 10:52:53;;;;;;;9.10;8.20;;;43.20;45.60;;;;;;5030685;28;20026;-66
2021/10/08 10:55:21;;;;;;;10.20;9.20;;;44.00;43.60;;;;;;5026660;28;20029;-66
2021/10/08 10:57:49;;;;;;;10.38;9.27;;;44.70;42.60;;;;;;5018670;28;20033;-66
2021/10/08 11:00:20;;;;;;;;;;;45.60;41.70;;;;;;5008444;28;20021;-67
2021/10/08 11:02:46;;;;;;;8.80;7.95;;;46.20;42.30;;;;;;5007148;28;20313;-66
2021/10/08 11:05:20;;;;;;;9.13;7.85;;;46.60;40.80;;;;;;5023994;28;20026;-66
2021/10/08 11:08:04;;;;;;;9.45;8.65;;;47.20;39.20;;;;;;5022939;28;20021;-67
2021/10/08 11:10:30;;;;;;;8.93;8.18;;;47.70;38.60;;;;;;5022744;28;20625;-67
2021/10/08 11:13:24;;;;;;;9.98;9.00;;;48.30;37.70;;;;;;5027137;28;20116;-67
2021/10/08 11:15:54;;;;;;;8.93;8.02;;;48.80;36.70;;;;;;5020932;28;20032;-67
2021/10/08 11:18:39;;;;;;;8.32;7.63;;;49.30;35.50;;;;;;5025473;28;20116;-66
2021/10/08 11:21:06;;;;;;;8.20;7.50;;;49.70;35.20;;;;;;5023744;28;20029;-66
2021/10/08 11:23:36;;;;;;;8.90;8.10;;;49.50;33.40;;;;;;5021869;28;20475;-66
2021/10/08 11:26:13;;;;;;;8.98;8.18;;;49.80;33.30;;;;;;5018455;28;20721;-67
2021/10/08 11:28:45;;;;;;;8.73;7.93;;;50.40;32.80;;;;;;5026729;28;20501;-66
2021/10/08 11:31:17;;;;;;;8.40;7.65;;;50.80;32.40;;;;;;5028010;28;20464;-67
2021/10/08 11:33:45;;;;;;;8.55;7.75;;;51.10;31.50;;;;;;5012537;28;20386;-67
2021/10/08 11:36:23;;;;;;;7.10;6.50;;;51.40;31.00;;;;;;5022542;28;20072;-67
2021/10/08 11:38:53;;;;;;;7.55;6.72;;;51.70;30.80;;;;;;5028365;28;20382;-67
2021/10/08 11:41:25;;;;;;;7.57;6.97;;;52.00;30.50;;;;;;5013267;28;20029;-66
2021/10/08 11:44:33;;;;;;;6.85;6.35;;;52.00;29.80;;;;;;5013405;28;20021;-67
2021/10/08 11:47:27;;;;;;;7.38;6.78;;;52.00;30.00;;;;;;5012995;28;20026;-67
2021/10/08 11:50:11;;;;;;;7.55;6.95;;;52.00;29.90;;;;;;5020250;28;20045;-66
2021/10/08 11:52:45;;;;;;;7.57;6.88;;;51.50;29.60;;;;;;5015715;28;20026;-67
2021/10/08 11:55:17;;;;;;;7.28;6.68;;;51.10;29.90;;;;;;5031476;28;20021;-67
2021/10/08 11:58:00;;;;;;;7.25;6.65;;;51.00;29.90;;;;;;5032816;28;20053;-66
2021/10/08 12:00:36;;;;;;;7.75;7.13;;;50.70;29.70;;;;;;5013194;28;20108;-67
2021/10/08 12:03:10;;;;;;;8.70;8.00;;;50.40;29.80;;;;;;5011708;28;20026;-67
2021/10/08 12:05:42;;;;;;;8.38;7.68;;;49.90;29.40;;;;;;5027699;28;20030;-66
2021/10/08 12:08:08;;;;;;;7.55;6.85;;;49.50;30.00;;;;;;5029664;28;20139;-66
2021/10/08 12:10:33;;;;;;;7.45;6.88;;;49.40;30.20;;;;;;5031815;28;20032;-66
2021/10/08 12:12:59;;;;;;;6.95;6.40;;;49.30;30.30;;;;;;5031443;28;20017;-66
2021/10/08 12:15:32;;;;;;;7.13;6.53;;;49.30;30.30;;;;;;5029020;28;20104;-66
2021/10/08 12:17:59;;;;;;;8.13;7.43;;;49.10;30.20;;;;;;5031483;28;20456;-66
2021/10/08 12:20:34;;;;;;;7.45;6.75;;;49.00;30.10;;;;;;5028945;28;20079;-66
2021/10/08 12:23:16;;;;;;;7.35;6.78;;;48.80;30.10;;;;;;5027377;28;20064;-66
2021/10/08 12:25:42;;;;;;;6.25;5.82;;;48.70;30.10;;;;;;5030168;28;20021;-66
2021/10/08 12:31:55;;;;;;;6.60;6.10;;;48.40;30.30;;;;;;5036516;28;20026;-66
2021/10/08 12:38:52;;;;;;;4.40;4.10;;;48.30;30.10;;;;;;5012783;28;20025;-67
2021/10/08 12:40:59;;;;;;;3.88;3.58;;;48.00;29.90;;;;;;5024907;28;20037;-66
2021/10/08 12:43:25;;;;;;;4.53;4.22;;;47.90;29.70;;;;;;5027609;28;20025;-66
2021/10/08 12:45:54;;;;;;;3.67;3.38;;;47.90;29.40;;;;;;5021641;28;20053;-66
2021/10/08 12:48:19;;;;;;;3.17;2.97;;;47.90;29.80;;;;;;5031069;28;20132;-66
2021/10/08 12:50:45;;;;;;;3.35;3.15;;;47.80;29.90;;;;;;5024323;28;20109;-66
2021/10/08 12:53:23;;;;;;;2.60;2.40;;;47.70;30.00;;;;;;5027192;28;20044;-66
2021/10/08 12:58:51;;;;;;;3.20;3.00;;;47.70;29.70;;;;;;5023835;28;20068;-66
2021/10/08 13:04:17;;;;;;;3.65;3.35;;;47.20;29.20;;;;;;5027718;28;20387;-66